sensor_id;sensor_type;location;lat;lon;timestamp;P1;durP1;ratioP1;P2;durP2;ratioP2
37771;SDS011;23610;59.380;24.642;2023-04-24T00:04:09;8.65;;;3.33;;
37771;SDS011;23610;59.380;24.642;2023-04-24T00:09:13;8.30;;;3.03;;
37771;SDS011;23610;59.380;24.642;2023-04-24T00:14:18;10.52;;;3.90;;
37771;SDS011;23610;59.380;24.642;2023-04-24T00:19:22;9.20;;;4.25;;
37771;SDS011;23610;59.380;24.642;2023-04-24T00:24:26;5.45;;;3.40;;
37771;SDS011;23610;59.380;24.642;2023-04-24T00:29:29;7.43;;;2.97;;
37771;SDS011;23610;59.380;24.642;2023-04-24T00:34:32;9.65;;;3.35;;
37771;SDS011;23610;59.380;24.642;2023-04-24T00:39:35;6.20;;;2.72;;
37771;SDS011;23610;59.380;24.642;2023-04-24T00:44:39;8.97;;;3.97;;
37771;SDS011;23610;59.380;24.642;2023-04-24T00:49:44;7.25;;;3.35;;
37771;SDS011;23610;59.380;24.642;2023-04-24T00:54:49;7.60;;;2.78;;
37771;SDS011;23610;59.380;24.642;2023-04-24T00:59:51;5.65;;;2.85;;
37771;SDS011;23610;59.380;24.642;2023-04-24T01:04:56;6.30;;;3.05;;
37771;SDS011;23610;59.380;24.642;2023-04-24T01:09:59;5.53;;;2.97;;
37771;SDS011;23610;59.380;24.642;2023-04-24T01:15:04;4.93;;;2.92;;
37771;SDS011;23610;59.380;24.642;2023-04-24T01:20:09;7.32;;;3.53;;
37771;SDS011;23610;59.380;24.642;2023-04-24T01:25:15;11.82;;;3.13;;
37771;SDS011;23610;59.380;24.642;2023-04-24T01:30:19;9.02;;;2.67;;
37771;SDS011;23610;59.380;24.642;2023-04-24T01:35:24;9.43;;;3.17;;
37771;SDS011;23610;59.380;24.642;2023-04-24T01:40:28;6.32;;;3.08;;
37771;SDS011;23610;59.380;24.642;2023-04-24T01:45:31;12.05;;;4.07;;
37771;SDS011;23610;59.380;24.642;2023-04-24T01:50:34;6.35;;;3.30;;
37771;SDS011;23610;59.380;24.642;2023-04-24T01:55:41;11.75;;;4.05;;
37771;SDS011;23610;59.380;24.642;2023-04-24T02:00:47;4.50;;;3.15;;
37771;SDS011;23610;59.380;24.642;2023-04-24T02:05:51;6.65;;;3.30;;
37771;SDS011;23610;59.380;24.642;2023-04-24T02:10:55;8.65;;;3.30;;
37771;SDS011;23610;59.380;24.642;2023-04-24T02:15:58;9.07;;;4.78;;
37771;SDS011;23610;59.380;24.642;2023-04-24T02:21:03;7.55;;;3.08;;
37771;SDS011;23610;59.380;24.642;2023-04-24T02:26:09;13.95;;;3.60;;
37771;SDS011;23610;59.380;24.642;2023-04-24T02:31:14;7.10;;;3.60;;
37771;SDS011;23610;59.380;24.642;2023-04-24T02:36:18;8.00;;;3.67;;
37771;SDS011;23610;59.380;24.642;2023-04-24T02:41:23;7.57;;;3.83;;
37771;SDS011;23610;59.380;24.642;2023-04-24T02:46:32;6.25;;;3.42;;
37771;SDS011;23610;59.380;24.642;2023-04-24T02:51:35;5.50;;;3.70;;
37771;SDS011;23610;59.380;24.642;2023-04-24T02:56:42;8.18;;;3.67;;
37771;SDS011;23610;59.380;24.642;2023-04-24T03:01:46;9.32;;;3.60;;
37771;SDS011;23610;59.380;24.642;2023-04-24T03:06:51;5.13;;;3.78;;
37771;SDS011;23610;59.380;24.642;2023-04-24T03:11:57;10.68;;;3.60;;
37771;SDS011;23610;59.380;24.642;2023-04-24T03:16:59;12.18;;;3.20;;
37771;SDS011;23610;59.380;24.642;2023-04-24T03:22:04;9.03;;;3.67;;
37771;SDS011;23610;59.380;24.642;2023-04-24T03:27:08;9.07;;;3.90;;
37771;SDS011;23610;59.380;24.642;2023-04-24T03:32:31;8.80;;;3.92;;
37771;SDS011;23610;59.380;24.642;2023-04-24T03:37:35;5.15;;;3.05;;
37771;SDS011;23610;59.380;24.642;2023-04-24T03:42:57;6.53;;;3.30;;
37771;SDS011;23610;59.380;24.642;2023-04-24T03:48:26;6.70;;;4.32;;
37771;SDS011;23610;59.380;24.642;2023-04-24T03:53:33;13.32;;;3.78;;
37771;SDS011;23610;59.380;24.642;2023-04-24T03:58:36;9.82;;;3.20;;
37771;SDS011;23610;59.380;24.642;2023-04-24T04:03:39;12.23;;;3.40;;
37771;SDS011;23610;59.380;24.642;2023-04-24T04:09:57;8.38;;;2.92;;
37771;SDS011;23610;59.380;24.642;2023-04-24T04:14:59;9.23;;;2.50;;
37771;SDS011;23610;59.380;24.642;2023-04-24T04:20:33;6.47;;;3.38;;
37771;SDS011;23610;59.380;24.642;2023-04-24T04:25:59;7.15;;;3.83;;
37771;SDS011;23610;59.380;24.642;2023-04-24T04:31:58;5.50;;;3.25;;
37771;SDS011;23610;59.380;24.642;2023-04-24T04:37:02;5.60;;;3.30;;
37771;SDS011;23610;59.380;24.642;2023-04-24T04:42:21;4.97;;;2.85;;
37771;SDS011;23610;59.380;24.642;2023-04-24T04:47:25;11.85;;;3.90;;
37771;SDS011;23610;59.380;24.642;2023-04-24T04:58:16;6.37;;;3.07;;
37771;SDS011;23610;59.380;24.642;2023-04-24T05:03:50;9.48;;;4.03;;
37771;SDS011;23610;59.380;24.642;2023-04-24T05:08:53;10.35;;;4.03;;
37771;SDS011;23610;59.380;24.642;2023-04-24T05:14:07;8.30;;;4.63;;
37771;SDS011;23610;59.380;24.642;2023-04-24T05:19:13;7.50;;;4.32;;
37771;SDS011;23610;59.380;24.642;2023-04-24T05:24:19;8.38;;;4.05;;
37771;SDS011;23610;59.380;24.642;2023-04-24T05:29:35;11.23;;;4.80;;
37771;SDS011;23610;59.380;24.642;2023-04-24T05:34:40;9.57;;;4.30;;
37771;SDS011;23610;59.380;24.642;2023-04-24T05:39:44;8.37;;;4.50;;
37771;SDS011;23610;59.380;24.642;2023-04-24T05:44:48;10.77;;;4.78;;
37771;SDS011;23610;59.380;24.642;2023-04-24T05:49:54;9.05;;;5.07;;
37771;SDS011;23610;59.380;24.642;2023-04-24T05:54:57;7.25;;;4.32;;
37771;SDS011;23610;59.380;24.642;2023-04-24T06:00:06;9.13;;;5.00;;
37771;SDS011;23610;59.380;24.642;2023-04-24T06:05:14;6.38;;;4.95;;
37771;SDS011;23610;59.380;24.642;2023-04-24T06:10:18;9.73;;;4.50;;
37771;SDS011;23610;59.380;24.642;2023-04-24T06:15:21;7.22;;;4.75;;
37771;SDS011;23610;59.380;24.642;2023-04-24T06:20:30;10.80;;;4.55;;
37771;SDS011;23610;59.380;24.642;2023-04-24T06:25:33;20.15;;;6.35;;
37771;SDS011;23610;59.380;24.642;2023-04-24T06:30:38;8.48;;;5.75;;
37771;SDS011;23610;59.380;24.642;2023-04-24T06:35:40;10.75;;;5.88;;
37771;SDS011;23610;59.380;24.642;2023-04-24T06:40:43;11.00;;;7.05;;
37771;SDS011;23610;59.380;24.642;2023-04-24T06:45:46;12.70;;;6.93;;
37771;SDS011;23610;59.380;24.642;2023-04-24T06:50:49;14.27;;;8.93;;
37771;SDS011;23610;59.380;24.642;2023-04-24T06:55:52;16.80;;;9.23;;
37771;SDS011;23610;59.380;24.642;2023-04-24T07:00:54;16.13;;;10.27;;
37771;SDS011;23610;59.380;24.642;2023-04-24T07:05:57;16.38;;;10.90;;
37771;SDS011;23610;59.380;24.642;2023-04-24T07:11:00;26.30;;;11.43;;
37771;SDS011;23610;59.380;24.642;2023-04-24T07:16:03;25.08;;;13.00;;
37771;SDS011;23610;59.380;24.642;2023-04-24T07:21:06;22.05;;;11.98;;
37771;SDS011;23610;59.380;24.642;2023-04-24T07:26:09;17.27;;;11.50;;
37771;SDS011;23610;59.380;24.642;2023-04-24T07:31:11;20.52;;;12.27;;
37771;SDS011;23610;59.380;24.642;2023-04-24T07:36:14;19.17;;;12.07;;
37771;SDS011;23610;59.380;24.642;2023-04-24T07:41:20;17.92;;;10.32;;
37771;SDS011;23610;59.380;24.642;2023-04-24T07:46:25;19.33;;;10.65;;
37771;SDS011;23610;59.380;24.642;2023-04-24T07:51:31;14.50;;;9.77;;
37771;SDS011;23610;59.380;24.642;2023-04-24T07:56:40;17.02;;;10.52;;
37771;SDS011;23610;59.380;24.642;2023-04-24T08:01:44;19.88;;;10.80;;
37771;SDS011;23610;59.380;24.642;2023-04-24T08:06:47;13.85;;;9.93;;
37771;SDS011;23610;59.380;24.642;2023-04-24T08:11:51;17.52;;;11.13;;
37771;SDS011;23610;59.380;24.642;2023-04-24T08:16:54;19.70;;;9.80;;
37771;SDS011;23610;59.380;24.642;2023-04-24T08:21:58;16.45;;;10.43;;
37771;SDS011;23610;59.380;24.642;2023-04-24T08:27:00;14.85;;;9.80;;
37771;SDS011;23610;59.380;24.642;2023-04-24T08:32:03;18.13;;;9.93;;
37771;SDS011;23610;59.380;24.642;2023-04-24T08:37:07;13.07;;;8.93;;
37771;SDS011;23610;59.380;24.642;2023-04-24T08:42:10;18.17;;;9.05;;
37771;SDS011;23610;59.380;24.642;2023-04-24T08:47:14;16.50;;;10.93;;
37771;SDS011;23610;59.380;24.642;2023-04-24T08:57:23;16.98;;;8.73;;
37771;SDS011;23610;59.380;24.642;2023-04-24T09:02:27;11.18;;;7.50;;
37771;SDS011;23610;59.380;24.642;2023-04-24T09:07:31;9.45;;;7.40;;
37771;SDS011;23610;59.380;24.642;2023-04-24T09:12:37;12.40;;;7.95;;
37771;SDS011;23610;59.380;24.642;2023-04-24T09:17:41;12.20;;;7.22;;
37771;SDS011;23610;59.380;24.642;2023-04-24T09:22:45;11.85;;;7.20;;
37771;SDS011;23610;59.380;24.642;2023-04-24T09:27:48;9.05;;;5.72;;
37771;SDS011;23610;59.380;24.642;2023-04-24T09:33:13;11.38;;;6.57;;
37771;SDS011;23610;59.380;24.642;2023-04-24T09:38:18;10.13;;;6.20;;
37771;SDS011;23610;59.380;24.642;2023-04-24T09:43:22;11.33;;;5.70;;
37771;SDS011;23610;59.380;24.642;2023-04-24T09:48:35;7.97;;;5.82;;
37771;SDS011;23610;59.380;24.642;2023-04-24T09:53:44;7.18;;;4.80;;
37771;SDS011;23610;59.380;24.642;2023-04-24T09:58:55;9.45;;;4.38;;
37771;SDS011;23610;59.380;24.642;2023-04-24T10:04:17;8.38;;;3.78;;
37771;SDS011;23610;59.380;24.642;2023-04-24T10:09:26;4.68;;;3.50;;
37771;SDS011;23610;59.380;24.642;2023-04-24T10:14:29;14.40;;;2.90;;
37771;SDS011;23610;59.380;24.642;2023-04-24T10:19:32;9.95;;;2.83;;
37771;SDS011;23610;59.380;24.642;2023-04-24T10:29:40;4.45;;;2.42;;
37771;SDS011;23610;59.380;24.642;2023-04-24T10:34:45;4.90;;;2.25;;
37771;SDS011;23610;59.380;24.642;2023-04-24T10:39:48;2.30;;;1.92;;
37771;SDS011;23610;59.380;24.642;2023-04-24T10:44:53;2.15;;;1.58;;
37771;SDS011;23610;59.380;24.642;2023-04-24T10:49:58;4.75;;;1.63;;
37771;SDS011;23610;59.380;24.642;2023-04-24T10:55:05;2.35;;;1.17;;
37771;SDS011;23610;59.380;24.642;2023-04-24T11:00:20;4.53;;;1.60;;
37771;SDS011;23610;59.380;24.642;2023-04-24T11:11:17;3.40;;;2.05;;
37771;SDS011;23610;59.380;24.642;2023-04-24T11:16:26;3.08;;;1.90;;
37771;SDS011;23610;59.380;24.642;2023-04-24T11:21:54;3.28;;;1.75;;
37771;SDS011;23610;59.380;24.642;2023-04-24T11:27:19;2.20;;;1.55;;
37771;SDS011;23610;59.380;24.642;2023-04-24T11:32:27;2.85;;;1.38;;
37771;SDS011;23610;59.380;24.642;2023-04-24T11:37:39;4.82;;;1.50;;
37771;SDS011;23610;59.380;24.642;2023-04-24T11:42:44;2.38;;;1.90;;
37771;SDS011;23610;59.380;24.642;2023-04-24T11:47:50;4.03;;;1.50;;
37771;SDS011;23610;59.380;24.642;2023-04-24T11:52:53;1.23;;;1.05;;
37771;SDS011;23610;59.380;24.642;2023-04-24T11:57:58;1.42;;;1.10;;
37771;SDS011;23610;59.380;24.642;2023-04-24T12:03:03;1.45;;;1.10;;
37771;SDS011;23610;59.380;24.642;2023-04-24T12:08:11;3.13;;;0.98;;
37771;SDS011;23610;59.380;24.642;2023-04-24T12:13:28;1.15;;;1.05;;
37771;SDS011;23610;59.380;24.642;2023-04-24T12:18:31;0.80;;;0.75;;
37771;SDS011;23610;59.380;24.642;2023-04-24T12:23:33;3.63;;;1.02;;
37771;SDS011;23610;59.380;24.642;2023-04-24T12:28:37;1.85;;;0.90;;
37771;SDS011;23610;59.380;24.642;2023-04-24T12:33:41;0.68;;;0.68;;
37771;SDS011;23610;59.380;24.642;2023-04-24T12:38:44;1.45;;;1.20;;
37771;SDS011;23610;59.380;24.642;2023-04-24T12:43:51;1.10;;;0.98;;
37771;SDS011;23610;59.380;24.642;2023-04-24T12:48:55;2.00;;;1.35;;
37771;SDS011;23610;59.380;24.642;2023-04-24T12:54:00;2.20;;;1.17;;
37771;SDS011;23610;59.380;24.642;2023-04-24T12:59:02;1.90;;;1.20;;
37771;SDS011;23610;59.380;24.642;2023-04-24T13:04:05;1.05;;;0.95;;
37771;SDS011;23610;59.380;24.642;2023-04-24T13:09:08;1.83;;;1.10;;
37771;SDS011;23610;59.380;24.642;2023-04-24T13:14:11;5.30;;;1.10;;
37771;SDS011;23610;59.380;24.642;2023-04-24T13:19:13;1.48;;;0.95;;
37771;SDS011;23610;59.380;24.642;2023-04-24T13:24:16;2.25;;;1.75;;
37771;SDS011;23610;59.380;24.642;2023-04-24T13:29:19;3.53;;;1.85;;
37771;SDS011;23610;59.380;24.642;2023-04-24T13:34:22;6.65;;;1.50;;
37771;SDS011;23610;59.380;24.642;2023-04-24T13:39:26;3.57;;;1.90;;
37771;SDS011;23610;59.380;24.642;2023-04-24T13:44:29;1.98;;;1.40;;
37771;SDS011;23610;59.380;24.642;2023-04-24T13:49:32;2.83;;;2.20;;
37771;SDS011;23610;59.380;24.642;2023-04-24T13:54:34;2.38;;;2.17;;
37771;SDS011;23610;59.380;24.642;2023-04-24T13:59:37;2.88;;;2.00;;
37771;SDS011;23610;59.380;24.642;2023-04-24T14:04:40;2.17;;;1.40;;
37771;SDS011;23610;59.380;24.642;2023-04-24T14:09:43;10.55;;;5.18;;
37771;SDS011;23610;59.380;24.642;2023-04-24T14:14:46;1.98;;;1.40;;
37771;SDS011;23610;59.380;24.642;2023-04-24T14:19:49;0.70;;;0.70;;
37771;SDS011;23610;59.380;24.642;2023-04-24T14:24:53;0.90;;;0.70;;
37771;SDS011;23610;59.380;24.642;2023-04-24T14:29:57;0.73;;;0.73;;
37771;SDS011;23610;59.380;24.642;2023-04-24T14:34:59;3.95;;;0.60;;
37771;SDS011;23610;59.380;24.642;2023-04-24T14:40:02;2.58;;;0.50;;
37771;SDS011;23610;59.380;24.642;2023-04-24T14:45:12;4.05;;;2.05;;
37771;SDS011;23610;59.380;24.642;2023-04-24T14:50:14;4.57;;;2.90;;
37771;SDS011;23610;59.380;24.642;2023-04-24T14:55:17;2.10;;;1.10;;
37771;SDS011;23610;59.380;24.642;2023-04-24T15:00:20;1.95;;;0.98;;
37771;SDS011;23610;59.380;24.642;2023-04-24T15:05:25;9.40;;;6.28;;
37771;SDS011;23610;59.380;24.642;2023-04-24T15:10:28;2.38;;;1.92;;
37771;SDS011;23610;59.380;24.642;2023-04-24T15:15:31;9.23;;;1.90;;
37771;SDS011;23610;59.380;24.642;2023-04-24T15:20:34;0.60;;;0.60;;
37771;SDS011;23610;59.380;24.642;2023-04-24T15:25:39;1.65;;;1.15;;
37771;SDS011;23610;59.380;24.642;2023-04-24T15:30:42;2.45;;;0.60;;
37771;SDS011;23610;59.380;24.642;2023-04-24T15:35:44;0.57;;;0.57;;
37771;SDS011;23610;59.380;24.642;2023-04-24T15:40:47;0.85;;;0.70;;
37771;SDS011;23610;59.380;24.642;2023-04-24T15:45:50;5.22;;;1.23;;
37771;SDS011;23610;59.380;24.642;2023-04-24T15:50:53;1.50;;;1.10;;
37771;SDS011;23610;59.380;24.642;2023-04-24T15:55:55;1.45;;;0.85;;
37771;SDS011;23610;59.380;24.642;2023-04-24T16:00:58;1.95;;;0.80;;
37771;SDS011;23610;59.380;24.642;2023-04-24T16:06:01;1.98;;;1.02;;
37771;SDS011;23610;59.380;24.642;2023-04-24T16:11:04;2.72;;;1.58;;
37771;SDS011;23610;59.380;24.642;2023-04-24T16:16:06;3.50;;;1.10;;
37771;SDS011;23610;59.380;24.642;2023-04-24T16:21:09;0.93;;;0.88;;
37771;SDS011;23610;59.380;24.642;2023-04-24T16:26:12;4.28;;;1.15;;
37771;SDS011;23610;59.380;24.642;2023-04-24T16:31:16;1.33;;;0.90;;
37771;SDS011;23610;59.380;24.642;2023-04-24T16:36:19;1.83;;;1.63;;
37771;SDS011;23610;59.380;24.642;2023-04-24T16:41:22;0.95;;;0.95;;
37771;SDS011;23610;59.380;24.642;2023-04-24T16:46:25;1.10;;;0.88;;
37771;SDS011;23610;59.380;24.642;2023-04-24T16:51:28;3.17;;;1.27;;
37771;SDS011;23610;59.380;24.642;2023-04-24T16:56:31;3.63;;;1.08;;
37771;SDS011;23610;59.380;24.642;2023-04-24T17:01:33;5.63;;;1.30;;
37771;SDS011;23610;59.380;24.642;2023-04-24T17:06:36;1.63;;;1.15;;
37771;SDS011;23610;59.380;24.642;2023-04-24T17:11:39;4.80;;;1.02;;
37771;SDS011;23610;59.380;24.642;2023-04-24T17:16:43;5.65;;;1.80;;
37771;SDS011;23610;59.380;24.642;2023-04-24T17:21:46;1.30;;;1.15;;
37771;SDS011;23610;59.380;24.642;2023-04-24T17:26:49;3.53;;;2.25;;
37771;SDS011;23610;59.380;24.642;2023-04-24T17:31:53;6.68;;;1.67;;
37771;SDS011;23610;59.380;24.642;2023-04-24T17:36:56;14.60;;;9.43;;
37771;SDS011;23610;59.380;24.642;2023-04-24T17:41:59;2.95;;;1.75;;
37771;SDS011;23610;59.380;24.642;2023-04-24T17:47:02;5.57;;;2.17;;
37771;SDS011;23610;59.380;24.642;2023-04-24T17:52:05;6.20;;;2.40;;
37771;SDS011;23610;59.380;24.642;2023-04-24T17:57:08;4.43;;;3.22;;
37771;SDS011;23610;59.380;24.642;2023-04-24T18:02:11;4.30;;;2.33;;
37771;SDS011;23610;59.380;24.642;2023-04-24T18:07:14;6.15;;;3.05;;
37771;SDS011;23610;59.380;24.642;2023-04-24T18:12:17;7.85;;;2.95;;
37771;SDS011;23610;59.380;24.642;2023-04-24T18:17:19;5.22;;;2.15;;
37771;SDS011;23610;59.380;24.642;2023-04-24T18:22:22;3.78;;;1.92;;
37771;SDS011;23610;59.380;24.642;2023-04-24T18:27:24;5.95;;;1.65;;
37771;SDS011;23610;59.380;24.642;2023-04-24T18:32:31;2.47;;;1.92;;
37771;SDS011;23610;59.380;24.642;2023-04-24T18:37:34;4.00;;;2.53;;
37771;SDS011;23610;59.380;24.642;2023-04-24T18:42:37;2.25;;;1.80;;
37771;SDS011;23610;59.380;24.642;2023-04-24T18:47:40;2.00;;;1.80;;
37771;SDS011;23610;59.380;24.642;2023-04-24T18:52:44;5.72;;;1.90;;
37771;SDS011;23610;59.380;24.642;2023-04-24T18:57:46;3.70;;;1.92;;
37771;SDS011;23610;59.380;24.642;2023-04-24T19:02:49;6.07;;;2.25;;
37771;SDS011;23610;59.380;24.642;2023-04-24T19:07:52;6.20;;;1.98;;
37771;SDS011;23610;59.380;24.642;2023-04-24T19:12:54;8.95;;;3.05;;
37771;SDS011;23610;59.380;24.642;2023-04-24T19:17:57;12.40;;;2.60;;
37771;SDS011;23610;59.380;24.642;2023-04-24T19:23:01;3.40;;;2.88;;
37771;SDS011;23610;59.380;24.642;2023-04-24T19:28:03;5.78;;;2.58;;
37771;SDS011;23610;59.380;24.642;2023-04-24T19:33:07;4.13;;;2.63;;
37771;SDS011;23610;59.380;24.642;2023-04-24T19:38:10;3.40;;;2.90;;
37771;SDS011;23610;59.380;24.642;2023-04-24T19:43:12;8.73;;;3.45;;
37771;SDS011;23610;59.380;24.642;2023-04-24T19:48:15;5.78;;;3.30;;
37771;SDS011;23610;59.380;24.642;2023-04-24T19:53:24;3.97;;;3.25;;
37771;SDS011;23610;59.380;24.642;2023-04-24T19:58:27;4.43;;;4.03;;
37771;SDS011;23610;59.380;24.642;2023-04-24T20:03:33;4.88;;;3.30;;
37771;SDS011;23610;59.380;24.642;2023-04-24T20:08:35;4.32;;;3.92;;
37771;SDS011;23610;59.380;24.642;2023-04-24T20:13:39;6.13;;;3.35;;
37771;SDS011;23610;59.380;24.642;2023-04-24T20:18:42;15.82;;;4.38;;
37771;SDS011;23610;59.380;24.642;2023-04-24T20:23:45;7.07;;;4.32;;
37771;SDS011;23610;59.380;24.642;2023-04-24T20:28:47;9.52;;;4.40;;
37771;SDS011;23610;59.380;24.642;2023-04-24T20:33:51;7.32;;;5.30;;
37771;SDS011;23610;59.380;24.642;2023-04-24T20:38:54;9.88;;;5.32;;
37771;SDS011;23610;59.380;24.642;2023-04-24T20:43:57;8.65;;;5.00;;
37771;SDS011;23610;59.380;24.642;2023-04-24T20:49:00;9.80;;;5.55;;
37771;SDS011;23610;59.380;24.642;2023-04-24T20:54:04;8.52;;;6.03;;
37771;SDS011;23610;59.380;24.642;2023-04-24T20:59:07;10.63;;;6.45;;
37771;SDS011;23610;59.380;24.642;2023-04-24T21:04:10;12.65;;;6.75;;
37771;SDS011;23610;59.380;24.642;2023-04-24T21:09:12;7.70;;;5.63;;
37771;SDS011;23610;59.380;24.642;2023-04-24T21:14:15;12.95;;;7.05;;
37771;SDS011;23610;59.380;24.642;2023-04-24T21:19:17;12.52;;;6.15;;
37771;SDS011;23610;59.380;24.642;2023-04-24T21:24:21;11.25;;;6.72;;
37771;SDS011;23610;59.380;24.642;2023-04-24T21:29:23;5.55;;;4.45;;
37771;SDS011;23610;59.380;24.642;2023-04-24T21:34:26;5.72;;;4.10;;
37771;SDS011;23610;59.380;24.642;2023-04-24T21:39:29;8.00;;;4.78;;
37771;SDS011;23610;59.380;24.642;2023-04-24T21:44:31;6.60;;;4.70;;
37771;SDS011;23610;59.380;24.642;2023-04-24T21:49:34;8.10;;;4.03;;
37771;SDS011;23610;59.380;24.642;2023-04-24T21:54:38;5.65;;;3.97;;
37771;SDS011;23610;59.380;24.642;2023-04-24T21:59:41;6.45;;;4.13;;
37771;SDS011;23610;59.380;24.642;2023-04-24T22:04:44;4.80;;;3.55;;
37771;SDS011;23610;59.380;24.642;2023-04-24T22:09:46;7.22;;;3.65;;
37771;SDS011;23610;59.380;24.642;2023-04-24T22:14:49;6.90;;;3.50;;
37771;SDS011;23610;59.380;24.642;2023-04-24T22:19:52;3.25;;;2.95;;
37771;SDS011;23610;59.380;24.642;2023-04-24T22:24:54;3.85;;;3.33;;
37771;SDS011;23610;59.380;24.642;2023-04-24T22:29:57;3.67;;;3.10;;
37771;SDS011;23610;59.380;24.642;2023-04-24T22:34:59;2.70;;;2.50;;
37771;SDS011;23610;59.380;24.642;2023-04-24T22:40:02;3.13;;;2.53;;
37771;SDS011;23610;59.380;24.642;2023-04-24T22:45:06;3.08;;;2.70;;
37771;SDS011;23610;59.380;24.642;2023-04-24T22:50:12;2.63;;;2.38;;
37771;SDS011;23610;59.380;24.642;2023-04-24T22:55:14;3.53;;;2.20;;
37771;SDS011;23610;59.380;24.642;2023-04-24T23:00:19;4.75;;;2.60;;
37771;SDS011;23610;59.380;24.642;2023-04-24T23:05:27;2.10;;;1.90;;
37771;SDS011;23610;59.380;24.642;2023-04-24T23:10:37;3.78;;;1.98;;
37771;SDS011;23610;59.380;24.642;2023-04-24T23:15:43;3.40;;;2.20;;
37771;SDS011;23610;59.380;24.642;2023-04-24T23:20:55;1.85;;;1.70;;
37771;SDS011;23610;59.380;24.642;2023-04-24T23:26:08;2.55;;;2.15;;
37771;SDS011;23610;59.380;24.642;2023-04-24T23:31:15;4.38;;;2.88;;
37771;SDS011;23610;59.380;24.642;2023-04-24T23:36:29;4.38;;;2.22;;
37771;SDS011;23610;59.380;24.642;2023-04-24T23:41:36;5.72;;;2.63;;
37771;SDS011;23610;59.380;24.642;2023-04-24T23:46:51;5.78;;;2.05;;
37771;SDS011;23610;59.380;24.642;2023-04-24T23:51:58;2.78;;;2.38;;
37771;SDS011;23610;59.380;24.642;2023-04-24T23:57:10;2.35;;;2.15;;
